New Braunfels, TX (78132)

7:30 AM CDT on April 29, 2017 (GMT -0500)
River Road nr 1st Crossing | | Change Station

Elev 672 ft 29.75 °N, 98.15 °W | Updated 30 seconds ago

Overcast
Overcast
76.6 °F
Feels Like 78 °F
N
9.0
Wind Variable Wind from SE
Gusts 15.0 mph

Today
High -- | Low -- °F
--% Chance of Precip.
Yesterday
High -- | Low -- °F
Precip. -- in
Pressure 29.55 in
Visibility 3.0 miles
Clouds Mostly Cloudy 2400 ft
Overcast 3000 ft
Heat Index 78 °F
Dew Point 72 °F
Humidity 85%
Rainfall 0.00 in
Snow Depth Not available.
6:51 AM 8:08 PM
Waxing Crescent, 13% visible
METAR KBAZ 291151Z 16016KT 3SM HZ BKN024 OVC030 26/21 A2958 RMK AO2 SLP007 T02560211 10256 20244 56005
Pressure 29.55 in
Visibility 3.0 miles
Clouds Mostly Cloudy 2400 ft
Overcast 3000 ft
Heat Index 78 °F
Dew Point 72 °F
Humidity 85%
Rainfall 0.00 in
Snow Depth Not available.
6:51 AM 8:08 PM
Waxing Crescent, 13% visible
METAR KBAZ 291151Z 16016KT 3SM HZ BKN024 OVC030 26/21 A2958 RMK AO2 SLP007 T02560211 10256 20244 56005

Get Severe Weather Alerts

Thanks for signing up!

Be on the lookout for a verification email in your inbox.

You'll start receiving the daily forecast at 8 AM.

×

10-Day Weather Forecast

Almanac

Astronomy

Apr. 29, 2017 Rise Set
Actual Time
Civil Twilight
Nautical Twilight
Astronomical Twilight
Moon
Length of Visible Light
Length of Day
Tomorrow will be .
, % of the Moon is Illuminated

Today's Extremes

State Highs State Lows

Community

WunderPhotos

WunderBlog® & News

Nearby

Air Quality

  Air Quality AQ Index Pollutant
Not available.

Snow Depth

Station Depth Elevation

Earthquake Activity

City Distance Mag. Time & Date
Minimum magnitude displayed is 2.5.

Coastal Water Temperatures

Place Temperature

Stations

Nearby Weather Stations

Station Location Temp. Windchill Dew Point Humidity Wind Precip. Elev Updated Type
                   

Watches & Warnings

There are currently no watches in effect.